Noma, Florida
Current Conditions -  °F | °C
As of 2:58 AM on Tuesday 21 Oct 2014 (Local Time) from KOZR Reporting Station
Clear Clear  
Wind Chill: 53°   Ceiling: Unl
Heat Index: 53°   Visibility: 10mi
Dew Point: 51°   Wind: 3mph
Humidity: 93%   Direction: 60°ENE
Pressure: 30"   Gusts: NA
Location:  30.98°N, 85.62°W
Report Text: KOZR 210758Z AUTO 06003KT 10SM CLR 11/10 A3000 RMK AO2 SLP160 T01140103
Loading
Personal Weather Stations






























Interactive Weather Map
Tropical Storm Tracking
New forecast layout! Learn more

10-Day Weather Forecast

Advertisements
Track Severe Weather on mobile